Time;durP1;ratioP1;P1;durP2;ratioP2;P2;SDS_P1;SDS_P2;PMS_P1;PMS_P2;Temp;Humidity;BMP_temperature;BMP_pressure;BME280_temperature;BME280_humidity;BME280_pressure;Samples;Min_cycle;Max_cycle;Signal;HPM_P1;HPM_P2
2021/06/18 00:00:31;;;;;;;6.55;5.95;;;;;;;27.59;44.64;101294.06;6174337;28;20242;-51
2021/06/18 00:03:52;;;;;;;6.90;6.20;;;;;;;27.41;45.23;101292.72;6167347;28;20229;-49
2021/06/18 00:07:14;;;;;;;6.07;5.47;;;;;;;27.33;45.39;101289.75;6177341;28;20222;-48
2021/06/18 00:10:35;;;;;;;7.95;5.70;;;;;;;27.77;44.01;101294.53;6178659;28;20273;-50
2021/06/18 00:13:56;;;;;;;7.60;5.55;;;;;;;27.64;44.30;101280.34;6172263;28;20246;-51
2021/06/18 00:17:17;;;;;;;8.68;5.63;;;;;;;27.27;45.59;101283.88;6173755;28;20281;-50
2021/06/18 00:20:37;;;;;;;7.13;5.68;;;;;;;27.36;45.19;101290.41;6170416;28;20222;-47
2021/06/18 00:23:59;;;;;;;6.78;6.13;;;;;;;27.61;44.72;101283.25;6172600;28;20234;-50
2021/06/18 00:27:20;;;;;;;6.43;5.85;;;;;;;27.78;44.06;101279.31;6176495;28;20235;-49
2021/06/18 00:30:41;;;;;;;6.22;5.40;;;;;;;27.62;44.59;101280.44;6184863;28;20234;-50
2021/06/18 00:34:02;;;;;;;6.53;6.03;;;;;;;27.49;45.05;101274.28;6169695;28;20234;-51
2021/06/18 00:37:23;;;;;;;9.25;5.90;;;;;;;27.42;44.95;101279.25;6168992;28;20234;-52
2021/06/18 00:40:47;;;;;;;6.15;5.57;;;;;;;27.67;44.30;101275.63;6176148;28;20238;-51
2021/06/18 00:44:08;;;;;;;6.32;5.72;;;;;;;27.44;45.31;101282.66;6173407;28;20229;-50
2021/06/18 00:47:29;;;;;;;7.90;5.38;;;;;;;27.16;45.97;101283.78;6168866;28;20234;-49
2021/06/18 00:50:50;;;;;;;6.53;5.93;;;;;;;27.23;45.31;101271.66;6171722;28;20813;-53
2021/06/18 00:54:13;;;;;;;5.78;5.38;;;;;;;26.93;46.45;101280.09;6170801;28;20238;-49
2021/06/18 00:57:35;;;;;;;6.53;5.78;;;;;;;27.09;46.11;101274.50;6176433;28;20233;-49
2021/06/18 01:00:56;;;;;;;7.22;6.65;;;;;;;26.96;46.71;101271.84;6170501;28;20239;-53
2021/06/18 01:04:17;;;;;;;6.50;5.78;;;;;;;26.88;46.81;101275.03;6177735;28;20237;-51
2021/06/18 01:07:48;;;;;;;7.35;6.50;;;;;;;27.11;45.80;101269.88;6175657;28;20518;-49
2021/06/18 01:11:17;;;;;;;7.88;7.03;;;;;;;27.10;45.96;101270.84;6167100;28;20333;-52
2021/06/18 01:14:48;;;;;;;6.53;5.85;;;;;;;27.14;46.11;101261.63;6170116;28;20612;-52
2021/06/18 01:18:14;;;;;;;6.43;5.60;;;;;;;27.37;45.20;101257.31;6168684;28;20238;-54
2021/06/18 01:21:39;;;;;;;6.57;5.97;;;;;;;27.22;45.50;101259.28;6172016;28;20230;-51
2021/06/18 01:25:05;;;;;;;6.25;5.43;;;;;;;27.13;46.40;101251.91;6165453;28;20325;-49
2021/06/18 01:28:42;;;;;;;5.65;5.15;;;;;;;27.23;45.77;101244.94;6176169;28;20322;-51
2021/06/18 01:32:05;;;;;;;5.93;5.35;;;;;;;27.27;45.37;101243.78;6173887;28;20429;-51
2021/06/18 01:35:32;;;;;;;10.02;7.50;;;;;;;26.92;46.94;101247.13;6161181;28;20242;-53
2021/06/18 01:38:54;;;;;;;7.60;6.82;;;;;;;26.70;47.41;101239.81;6167399;28;20241;-51
2021/06/18 01:42:17;;;;;;;9.02;8.13;;;;;;;26.86;46.81;101236.91;6166158;28;20233;-55
2021/06/18 01:45:41;;;;;;;8.73;6.35;;;;;;;26.61;47.42;101234.25;6169026;28;20324;-49
2021/06/18 01:49:08;;;;;;;8.20;7.53;;;;;;;26.55;48.04;101235.50;6177661;28;20245;-51
2021/06/18 01:52:31;;;;;;;7.68;6.97;;;;;;;26.49;48.00;101239.47;6157300;28;20511;-49
2021/06/18 01:55:53;;;;;;;6.97;6.28;;;;;;;26.81;47.02;101231.03;6163586;28;20551;-51
2021/06/18 01:59:15;;;;;;;8.48;6.35;;;;;;;26.76;47.28;101238.53;6163858;28;20237;-51
2021/06/18 02:02:37;;;;;;;6.57;6.07;;;;;;;26.42;48.32;101235.50;6181766;28;20246;-51
2021/06/18 02:06:03;;;;;;;6.85;6.28;;;;;;;26.66;47.15;101230.31;6155744;28;20234;-54
2021/06/18 02:09:29;;;;;;;7.50;6.68;;;;;;;26.34;48.67;101237.84;6170044;28;20616;-49
2021/06/18 02:12:51;;;;;;;6.78;6.22;;;;;;;26.12;49.30;101225.97;6169798;28;20246;-52
2021/06/18 02:16:16;;;;;;;6.40;5.90;;;;;;;26.29;48.63;101230.16;6159846;28;20616;-51
2021/06/18 02:19:41;;;;;;;7.38;6.68;;;;;;;26.21;48.87;101229.84;6166269;28;20316;-50
2021/06/18 02:23:02;;;;;;;6.95;6.10;;;;;;;26.27;48.65;101229.41;6164077;28;20571;-50
2021/06/18 02:26:25;;;;;;;9.48;7.20;;;;;;;26.29;48.67;101232.00;6172608;28;20230;-47
2021/06/18 02:29:46;;;;;;;6.78;6.25;;;;;;;26.30;48.53;101231.84;6175363;28;20843;-55
2021/06/18 02:33:12;;;;;;;7.70;7.00;;;;;;;26.11;49.26;101232.28;6162580;28;20249;-51
2021/06/18 02:36:35;;;;;;;8.80;7.90;;;;;;;26.31;49.01;101224.72;6175511;28;20226;-50
2021/06/18 02:39:56;;;;;;;14.23;7.30;;;;;;;26.28;48.85;101214.25;6161034;28;20620;-51
2021/06/18 02:43:16;;;;;;;11.13;7.60;;;;;;;26.22;49.00;101217.34;6169336;28;20233;-48
2021/06/18 02:46:41;;;;;;;7.05;6.45;;;;;;;26.30;48.66;101217.66;6177081;28;20230;-53
2021/06/18 02:50:11;;;;;;;7.55;6.93;;;;;;;26.29;48.88;101214.16;6170368;28;20238;-51
2021/06/18 02:53:41;;;;;;;7.38;6.78;;;;;;;26.28;48.80;101216.91;6172884;28;20591;-48
2021/06/18 02:57:07;;;;;;;7.40;6.80;;;;;;;26.24;48.84;101228.78;6182920;28;20452;-51
2021/06/18 03:00:29;;;;;;;9.00;7.82;;;;;;;26.27;48.64;101229.41;6167855;28;20241;-50
2021/06/18 03:03:54;;;;;;;9.05;8.18;;;;;;;26.12;49.02;101230.47;6170345;28;20498;-51
2021/06/18 03:07:18;;;;;;;10.35;9.45;;;;;;;26.28;48.38;101230.25;6172296;28;20277;-52
2021/06/18 03:10:42;;;;;;;10.25;8.63;;;;;;;25.99;49.07;101225.09;6172532;28;20335;-48
2021/06/18 03:14:08;;;;;;;8.65;7.78;;;;;;;25.98;49.63;101228.75;6172744;28;20321;-46
2021/06/18 03:17:30;;;;;;;8.95;8.25;;;;;;;26.15;49.41;101221.38;6179233;28;20234;-52
2021/06/18 03:20:55;;;;;;;9.02;8.27;;;;;;;25.82;49.61;101228.00;6179294;28;20284;-50
2021/06/18 03:24:16;;;;;;;8.98;8.07;;;;;;;25.77;50.04;101238.16;6173965;28;20226;-50
2021/06/18 03:27:40;;;;;;;8.10;7.50;;;;;;;25.91;49.69;101232.78;6178391;28;20238;-52
2021/06/18 03:31:03;;;;;;;9.60;8.38;;;;;;;25.61;50.69;101232.97;6171874;28;20238;-52
2021/06/18 03:34:26;;;;;;;8.05;7.25;;;;;;;25.89;50.29;101237.31;6181079;28;20236;-50
2021/06/18 03:37:48;;;;;;;10.43;9.52;;;;;;;25.95;49.66;101238.75;6184673;28;20230;-48
2021/06/18 03:41:09;;;;;;;10.32;9.35;;;;;;;25.59;50.93;101243.75;6177456;28;20600;-48
2021/06/18 03:44:32;;;;;;;11.93;10.73;;;;;;;25.80;50.17;101240.59;6174324;28;20616;-51
2021/06/18 03:47:53;;;;;;;10.65;9.80;;;;;;;25.85;50.30;101242.00;6171255;28;20512;-49
2021/06/18 03:51:15;;;;;;;17.85;10.25;;;;;;;25.99;49.77;101237.59;6182191;28;20233;-52
2021/06/18 03:54:37;;;;;;;10.93;9.52;;;;;;;25.98;49.49;101252.75;6180287;28;20557;-52
2021/06/18 03:58:01;;;;;;;10.52;9.35;;;;;;;26.06;49.37;101237.06;6174265;28;20458;-50
2021/06/18 04:01:25;;;;;;;8.68;7.85;;;;;;;26.01;49.74;101252.53;6175799;28;20230;-48
2021/06/18 04:04:47;;;;;;;10.38;9.48;;;;;;;26.26;49.24;101256.22;6170418;28;20620;-50
2021/06/18 04:08:09;;;;;;;17.48;16.27;;;;;;;26.17;49.02;101240.81;6177729;28;20234;-53
2021/06/18 04:11:30;;;;;;;11.02;10.10;;;;;;;26.27;49.02;101239.25;6169904;28;20246;-49
2021/06/18 04:14:53;;;;;;;10.20;8.52;;;;;;;26.12;49.53;101239.31;6177596;28;20225;-47
2021/06/18 04:18:20;;;;;;;10.13;9.13;;;;;;;26.43;48.56;101247.91;6170748;28;20257;-49
2021/06/18 04:21:43;;;;;;;10.10;9.25;;;;;;;26.06;49.32;101245.09;6169928;28;20490;-53
2021/06/18 04:25:04;;;;;;;11.10;10.13;;;;;;;26.11;49.64;101242.09;6170222;28;20609;-53
2021/06/18 04:28:25;;;;;;;14.60;13.35;;;;;;;26.23;49.12;101245.72;6179543;28;20245;-49
2021/06/18 04:31:46;;;;;;;11.02;10.10;;;;;;;26.32;48.91;101245.09;6177161;28;20310;-53
2021/06/18 04:35:10;;;;;;;10.20;9.30;;;;;;;26.69;47.56;101239.91;6176820;28;20230;-52
2021/06/18 04:38:32;;;;;;;10.85;9.75;;;;;;;26.55;48.05;101243.53;6178092;28;20321;-54
2021/06/18 04:41:53;;;;;;;9.02;8.13;;;;;;;26.49;48.30;101243.94;6177237;28;20229;-51
2021/06/18 04:45:14;;;;;;;9.40;8.50;;;;;;;26.79;47.64;101242.78;6173285;28;20233;-52
2021/06/18 04:48:35;;;;;;;8.27;7.57;;;;;;;26.49;48.30;101239.47;6174204;28;20229;-52
2021/06/18 04:51:57;;;;;;;8.82;8.13;;;;;;;26.96;46.88;101234.41;6176733;28;20221;-50
2021/06/18 04:55:19;;;;;;;8.65;7.85;;;;;;;26.75;47.82;101239.47;6170013;28;20537;-52
2021/06/18 04:58:40;;;;;;;9.48;8.70;;;;;;;26.85;47.41;101237.88;6169416;28;20230;-52
2021/06/18 05:02:01;;;;;;;7.40;6.78;;;;;;;26.94;47.34;101232.84;6176403;28;20230;-51
2021/06/18 05:05:22;;;;;;;9.68;8.65;;;;;;;27.14;46.85;101237.56;6175701;28;20250;-54
2021/06/18 05:08:45;;;;;;;8.18;7.35;;;;;;;27.18;46.42;101224.84;6170508;28;20607;-49
2021/06/18 05:12:06;;;;;;;7.45;6.72;;;;;;;27.42;45.79;101224.91;6171955;28;20623;-52
2021/06/18 05:15:28;;;;;;;7.78;6.97;;;;;;;27.46;46.00;101232.59;6172460;28;20238;-48
2021/06/18 05:18:49;;;;;;;8.63;7.78;;;;;;;27.78;44.82;101237.38;6171686;28;20230;-50
2021/06/18 05:22:10;;;;;;;8.65;7.80;;;;;;;27.73;44.75;101238.69;6180292;28;20321;-49
2021/06/18 05:25:33;;;;;;;9.45;8.07;;;;;;;27.72;44.49;101247.66;6169917;28;20235;-53
2021/06/18 05:28:53;;;;;;;8.65;7.70;;;;;;;27.40;45.35;101246.41;6166069;28;20333;-50
2021/06/18 05:32:16;;;;;;;7.50;6.80;;;;;;;27.45;45.26;101256.75;6173115;28;20242;-52
2021/06/18 05:35:38;;;;;;;8.60;7.57;;;;;;;27.69;44.86;101257.63;6178366;28;20226;-48
2021/06/18 05:38:59;;;;;;;11.13;8.30;;;;;;;27.72;44.99;101251.19;6175652;28;20356;-53
2021/06/18 05:42:21;;;;;;;7.90;7.35;;;;;;;27.65;44.95;101242.78;6172909;28;20226;-50
2021/06/18 05:45:42;;;;;;;9.40;8.52;;;;;;;27.93;44.06;101254.09;6166539;28;20246;-50
2021/06/18 05:49:03;;;;;;;10.75;8.27;;;;;;;28.03;43.85;101252.47;6172433;28;20595;-46
2021/06/18 05:52:24;;;;;;;8.50;7.55;;;;;;;28.02;43.58;101253.41;6172403;28;20223;-48
2021/06/18 05:55:45;;;;;;;8.57;7.68;;;;;;;27.94;43.74;101253.16;6173611;28;20227;-53
2021/06/18 05:59:07;;;;;;;15.88;9.00;;;;;;;28.05;43.88;101265.69;6174282;28;20537;-50
2021/06/18 06:02:28;;;;;;;8.90;7.65;;;;;;;27.93;43.70;101264.81;6169531;28;20286;-51
2021/06/18 06:05:49;;;;;;;8.80;7.88;;;;;;;28.25;43.01;101267.72;6167779;28;20568;-51
2021/06/18 06:09:10;;;;;;;8.52;7.82;;;;;;;28.53;42.15;101262.09;6167555;28;20230;-53
2021/06/18 06:12:31;;;;;;;35.63;32.72;;;;;;;28.66;41.75;101268.19;6171759;28;20301;-49
2021/06/18 06:15:54;;;;;;;11.63;10.25;;;;;;;28.60;41.65;101271.38;6172268;28;20535;-50
2021/06/18 06:19:15;;;;;;;9.90;9.05;;;;;;;28.40;42.15;101260.34;6165450;28;20737;-53
2021/06/18 06:22:36;;;;;;;8.68;7.88;;;;;;;28.50;41.93;101270.31;6172294;28;20687;-54
2021/06/18 06:26:00;;;;;;;9.43;8.48;;;;;;;28.45;41.68;101260.81;6170853;28;20521;-51
2021/06/18 06:29:21;;;;;;;11.63;7.78;;;;;;;28.24;41.73;101265.16;6157649;28;20238;-54
2021/06/18 06:32:44;;;;;;;9.75;7.85;;;;;;;28.51;41.38;101266.69;6168703;28;21029;-53
2021/06/18 06:36:05;;;;;;;8.85;7.40;;;;;;;28.65;40.94;101263.78;6176249;28;20226;-51
2021/06/18 06:39:26;;;;;;;8.80;7.65;;;;;;;28.78;40.67;101264.53;6153497;28;20234;-53
2021/06/18 06:42:47;;;;;;;9.07;7.20;;;;;;;28.47;40.16;101272.25;6165258;28;20244;-54
2021/06/18 06:46:08;;;;;;;7.38;6.50;;;;;;;28.69;41.08;101261.72;6178458;28;20231;-53
2021/06/18 06:49:31;;;;;;;11.52;8.88;;;;;;;28.84;39.11;101258.69;6178020;28;20237;-46
2021/06/18 06:52:52;;;;;;;7.68;7.10;;;;;;;28.65;38.74;101266.47;6164207;28;20218;-54
2021/06/18 06:56:14;;;;;;;7.78;7.00;;;;;;;29.10;38.76;101274.53;6176044;28;20230;-52
2021/06/18 06:59:35;;;;;;;7.75;6.82;;;;;;;28.78;38.25;101264.53;6174743;28;20226;-56
2021/06/18 07:02:56;;;;;;;7.88;7.25;;;;;;;28.97;38.75;101274.66;6174532;28;20928;-55
2021/06/18 07:06:19;;;;;;;10.65;7.00;;;;;;;29.31;38.09;101276.47;6172672;28;20229;-48
2021/06/18 07:09:40;;;;;;;8.07;7.28;;;;;;;29.47;37.77;101268.91;6181091;28;20218;-54
2021/06/18 07:13:01;;;;;;;8.65;7.75;;;;;;;29.57;38.32;101272.50;6169614;28;20235;-53
2021/06/18 07:16:22;;;;;;;8.57;7.75;;;;;;;28.93;38.33;101267.00;6175709;28;20234;-53
2021/06/18 07:19:43;;;;;;;8.80;7.88;;;;;;;29.44;38.11;101272.66;6174753;28;20332;-52
2021/06/18 07:23:05;;;;;;;9.43;7.97;;;;;;;29.80;38.08;101275.16;6179032;28;20234;-54
2021/06/18 07:26:27;;;;;;;8.35;7.43;;;;;;;29.38;37.22;101277.69;6174804;28;20234;-47
2021/06/18 07:29:48;;;;;;;7.80;7.07;;;;;;;29.49;37.75;101268.75;6171936;28;20233;-54
2021/06/18 07:33:09;;;;;;;9.15;7.88;;;;;;;29.40;37.44;101267.69;6169440;28;20222;-54
2021/06/18 07:36:30;;;;;;;7.75;7.00;;;;;;;29.81;36.49;101274.16;6172329;28;20512;-50
2021/06/18 07:39:52;;;;;;;7.63;6.93;;;;;;;30.12;35.87;101276.97;6182952;28;20234;-54
2021/06/18 07:43:13;;;;;;;7.57;6.68;;;;;;;30.55;37.18;101273.31;6172169;28;20234;-51
2021/06/18 07:46:34;;;;;;;7.45;6.72;;;;;;;30.80;36.69;101266.63;6171567;28;20242;-52
2021/06/18 07:49:55;;;;;;;8.90;7.97;;;;;;;30.07;35.45;101268.44;6162915;28;20230;-55
2021/06/18 07:53:16;;;;;;;9.02;8.13;;;;;;;29.50;36.46;101265.94;6170682;28;20261;-52
2021/06/18 07:56:42;;;;;;;8.85;8.10;;;;;;;29.90;36.87;101264.50;6174946;28;20257;-48
2021/06/18 08:00:04;;;;;;;8.63;7.82;;;;;;;29.52;37.50;101258.63;6179892;28;20810;-53
2021/06/18 08:03:31;;;;;;;10.35;9.05;;;;;;;30.00;35.97;101252.84;6176738;28;20238;-49
2021/06/18 08:06:52;;;;;;;7.97;7.20;;;;;;;29.86;36.67;101255.84;6174970;28;20617;-47
2021/06/18 08:10:15;;;;;;;8.82;7.93;;;;;;;30.53;34.97;101253.78;6173932;28;20246;-51
2021/06/18 08:13:37;;;;;;;7.35;6.60;;;;;;;29.84;35.20;101261.34;6174029;28;20238;-51
2021/06/18 08:16:58;;;;;;;6.97;6.22;;;;;;;30.40;34.63;101254.84;6170393;28;20237;-48
2021/06/18 08:20:22;;;;;;;6.85;6.22;;;;;;;30.56;33.47;101253.53;6171732;28;20238;-50
2021/06/18 08:23:43;;;;;;;7.28;6.65;;;;;;;30.65;33.19;101243.78;6175855;28;20258;-52
2021/06/18 08:27:04;;;;;;;8.13;7.53;;;;;;;31.05;33.40;101246.53;6172479;28;20503;-50
2021/06/18 08:30:27;;;;;;;7.82;6.43;;;;;;;30.83;33.47;101233.28;6172627;28;20234;-48
2021/06/18 08:33:48;;;;;;;7.57;6.93;;;;;;;31.24;33.06;101236.81;6178854;28;20230;-50
2021/06/18 08:37:09;;;;;;;11.60;6.57;;;;;;;31.84;32.09;101237.59;6170087;28;20615;-51
2021/06/18 08:40:31;;;;;;;7.28;6.68;;;;;;;32.46;32.02;101239.94;6176840;28;20234;-52
2021/06/18 08:43:52;;;;;;;8.10;7.10;;;;;;;32.48;32.36;101229.84;6174259;28;20246;-49
2021/06/18 08:47:15;;;;;;;7.15;6.55;;;;;;;33.04;31.79;101228.91;6178756;28;20241;-47
2021/06/18 08:50:36;;;;;;;6.50;6.07;;;;;;;33.21;31.73;101237.19;6184752;28;20230;-52
2021/06/18 08:53:56;;;;;;;10.18;9.27;;;;;;;33.10;30.99;101232.88;6172008;28;20226;-50
2021/06/18 08:57:20;;;;;;;10.85;8.82;;;;;;;32.66;30.97;101235.34;6168754;28;20316;-53
2021/06/18 09:00:41;;;;;;;8.27;7.47;;;;;;;32.21;31.17;101220.69;6170521;28;20261;-47
2021/06/18 09:04:06;;;;;;;6.60;5.85;;;;;;;32.67;31.34;101229.81;6170913;28;20230;-52
2021/06/18 09:07:27;;;;;;;9.18;6.80;;;;;;;32.58;30.07;101228.00;6172191;28;20230;-50
2021/06/18 09:10:48;;;;;;;7.82;6.72;;;;;;;32.55;30.38;101222.84;6176522;28;20261;-50
2021/06/18 09:14:17;;;;;;;9.63;7.07;;;;;;;32.73;30.81;101210.34;6174296;28;20328;-49
2021/06/18 09:17:37;;;;;;;7.28;6.68;;;;;;;33.33;30.68;101219.81;6169654;28;20229;-52
2021/06/18 09:24:29;;;;;;;9.93;6.32;;;;;;;33.29;30.59;101221.13;6319555;27;20326;-49
2021/06/18 09:27:51;;;;;;;7.55;6.70;;;;;;;33.20;30.42;101214.78;6310379;28;20518;-50
2021/06/18 09:31:12;;;;;;;8.05;7.22;;;;;;;33.91;30.00;101215.81;6300481;28;20234;-48
2021/06/18 09:34:44;;;;;;;8.38;7.03;;;;;;;33.92;29.71;101218.31;6290995;28;20615;-54
2021/06/18 09:38:07;;;;;;;6.82;6.18;;;;;;;33.61;29.52;101215.16;6297823;28;20586;-52
2021/06/18 09:41:32;;;;;;;7.55;6.72;;;;;;;33.61;29.49;101214.31;6304628;28;20258;-50
2021/06/18 09:45:09;;;;;;;9.90;6.70;;;;;;;34.19;29.38;101210.28;6289613;28;20226;-50
2021/06/18 09:48:35;;;;;;;6.97;6.40;;;;;;;34.19;28.48;101200.31;6294717;28;20222;-48
2021/06/18 09:51:57;;;;;;;9.73;8.73;;;;;;;33.90;29.68;101196.03;6274370;28;20570;-51
2021/06/18 09:55:21;;;;;;;8.65;7.78;;;;;;;33.88;29.18;101200.72;6287068;28;20632;-50
2021/06/18 09:58:45;;;;;;;10.18;8.07;;;;;;;33.97;30.32;101193.56;6287132;28;20230;-52
2021/06/18 10:02:06;;;;;;;7.90;7.20;;;;;;;34.54;28.47;101186.81;6289130;27;20230;-52
2021/06/18 10:05:29;;;;;;;7.43;6.28;;;;;;;34.23;29.40;101187.31;6298210;28;20629;-52
2021/06/18 10:08:51;;;;;;;7.22;6.53;;;;;;;34.71;29.58;101175.09;6296432;28;20527;-48
2021/06/18 10:12:13;;;;;;;6.93;6.25;;;;;;;34.76;28.74;101177.28;6307004;28;20505;-51
2021/06/18 10:15:38;;;;;;;8.02;7.25;;;;;;;34.17;28.93;101183.41;6265627;28;20235;-48
2021/06/18 10:19:01;;;;;;;7.05;6.53;;;;;;;34.27;27.83;101188.69;6268603;28;20538;-49
2021/06/18 10:22:23;;;;;;;6.90;6.40;;;;;;;34.07;28.40;101180.78;6276213;28;20222;-50
2021/06/18 10:25:52;;;;;;;6.97;6.47;;;;;;;34.09;29.16;101180.63;6266706;28;20281;-49
2021/06/18 10:29:29;;;;;;;7.32;6.82;;;;;;;35.01;27.88;101176.34;6283402;28;20448;-47
2021/06/18 10:32:52;;;;;;;7.05;6.05;;;;;;;35.21;27.67;101182.34;6277876;28;20219;-52
2021/06/18 10:36:23;;;;;;;6.95;6.43;;;;;;;34.54;27.65;101167.88;6254087;28;20228;-54
2021/06/18 10:39:50;;;;;;;6.88;6.40;;;;;;;34.55;27.46;101165.03;6257462;28;20801;-52
2021/06/18 10:43:14;;;;;;;10.57;6.90;;;;;;;34.45;28.01;101165.16;6263795;28;20280;-50
2021/06/18 10:46:37;;;;;;;7.03;6.30;;;;;;;34.62;27.64;101171.47;6255629;28;20231;-50
2021/06/18 10:50:01;;;;;;;7.60;6.70;;;;;;;35.54;26.79;101182.38;6258523;28;20494;-49
2021/06/18 10:53:24;;;;;;;7.32;6.47;;;;;;;34.39;27.63;101167.63;6253961;28;20252;-54
2021/06/18 10:56:56;;;;;;;8.48;7.38;;;;;;;34.23;28.02;101165.72;6265521;28;20330;-51
2021/06/18 11:00:23;;;;;;;7.70;6.70;;;;;;;34.54;27.76;101171.44;6279043;28;20500;-54
2021/06/18 11:03:56;;;;;;;7.75;7.13;;;;;;;34.07;28.13;101174.53;6278158;28;20230;-51
2021/06/18 11:07:24;;;;;;;9.32;6.63;;;;;;;34.20;27.56;101176.81;6297124;28;20227;-48
2021/06/18 11:10:45;;;;;;;7.07;6.55;;;;;;;34.64;27.40;101157.78;6281120;28;20227;-48
2021/06/18 11:14:08;;;;;;;7.35;6.57;;;;;;;35.40;26.47;101169.50;6279533;28;20231;-51
2021/06/18 11:17:44;;;;;;;6.95;6.28;;;;;;;36.02;25.48;101163.56;6276381;28;20227;-54
2021/06/18 11:21:08;;;;;;;15.02;8.27;;;;;;;35.67;28.49;101169.22;6285052;28;20584;-50
2021/06/18 11:24:40;;;;;;;10.13;9.07;;;;;;;35.61;30.36;101163.59;6280914;28;20681;-50
2021/06/18 11:28:35;;;;;;;9.30;8.50;;;;;;;35.68;30.43;101161.94;6274747;28;21559;-51
2021/06/18 11:31:56;;;;;;;8.60;7.90;;;;;;;35.33;28.58;101153.09;6277179;28;20313;-50
2021/06/18 11:35:40;;;;;;;8.93;8.23;;;;;;;35.34;27.87;101154.78;6283646;28;20227;-53
2021/06/18 11:39:15;;;;;;;7.75;7.05;;;;;;;36.63;26.99;101151.16;6282425;28;20227;-54
2021/06/18 11:42:39;;;;;;;6.97;6.45;;;;;;;37.18;25.52;101149.34;6277604;28;20235;-50
2021/06/18 11:46:01;;;;;;;7.70;6.90;;;;;;;36.05;25.14;101147.78;6275188;28;20246;-54
2021/06/18 11:49:24;;;;;;;6.60;5.95;;;;;;;36.34;25.10;101145.56;6278352;28;20223;-53
2021/06/18 11:52:44;;;;;;;6.90;6.13;;;;;;;35.22;25.71;101145.28;6280498;28;20220;-47
2021/06/18 11:56:07;;;;;;;6.65;6.03;;;;;;;35.84;25.05;101151.06;6285523;28;20232;-52
2021/06/18 11:59:30;;;;;;;6.07;5.68;;;;;;;35.49;25.75;101147.66;6286770;28;20322;-51
2021/06/18 12:02:52;;;;;;;8.73;5.70;;;;;;;36.10;25.02;101133.75;6276881;28;20326;-53
2021/06/18 12:06:17;;;;;;;6.45;5.95;;;;;;;36.30;25.50;101138.78;6267619;28;20232;-52
2021/06/18 12:09:40;;;;;;;6.18;5.68;;;;;;;37.12;24.68;101141.06;6258196;28;20224;-54
2021/06/18 12:13:02;;;;;;;6.47;5.88;;;;;;;36.98;24.99;101143.53;6257899;28;20236;-49
2021/06/18 12:16:27;;;;;;;6.97;6.25;;;;;;;37.46;24.62;101145.22;6262578;28;20896;-47
2021/06/18 12:19:49;;;;;;;6.88;6.38;;;;;;;37.36;24.58;101138.22;6261277;28;20710;-51
2021/06/18 12:23:15;;;;;;;8.05;7.32;;;;;;;37.40;25.09;101136.81;6254755;28;20236;-52
2021/06/18 12:26:37;;;;;;;8.00;7.15;;;;;;;37.71;25.25;101126.88;6252353;28;20231;-47
2021/06/18 12:30:00;;;;;;;6.93;6.53;;;;;;;37.32;25.75;101134.19;6244735;28;20325;-48
2021/06/18 12:33:23;;;;;;;7.75;6.93;;;;;;;37.20;25.68;101130.19;6251994;28;20236;-49
2021/06/18 12:36:44;;;;;;;8.00;7.40;;;;;;;37.81;25.01;101124.75;6257588;28;20235;-49
2021/06/18 12:40:12;;;;;;;7.95;7.13;;;;;;;38.40;25.14;101127.47;6269368;28;20235;-48
2021/06/18 12:43:35;;;;;;;8.25;7.55;;;;;;;38.08;24.15;101123.28;6260242;28;20263;-47
2021/06/18 12:46:58;;;;;;;8.13;7.43;;;;;;;38.31;24.63;101128.63;6244481;28;20227;-50
2021/06/18 12:50:31;;;;;;;8.35;7.65;;;;;;;38.63;23.72;101121.06;6252514;28;20228;-53
2021/06/18 12:54:02;;;;;;;10.13;7.50;;;;;;;38.31;24.35;101116.88;6251309;28;20273;-51
2021/06/18 12:57:24;;;;;;;8.07;7.38;;;;;;;38.37;24.43;101122.41;6248908;28;20249;-53
2021/06/18 13:00:50;;;;;;;7.30;6.70;;;;;;;38.11;23.74;101128.34;6252076;28;20243;-47
2021/06/18 13:04:13;;;;;;;6.07;5.70;;;;;;;38.49;24.36;101111.06;6254839;28;20231;-51
2021/06/18 13:07:38;;;;;;;8.38;7.63;;;;;;;38.38;24.28;101106.94;6258315;28;20224;-53
2021/06/18 13:10:59;;;;;;;7.65;6.97;;;;;;;38.96;23.54;101104.25;6253570;28;20240;-53
2021/06/18 13:14:22;;;;;;;8.88;8.13;;;;;;;39.28;23.84;101102.91;6259057;28;20621;-54
2021/06/18 13:17:54;;;;;;;9.10;7.22;;;;;;;39.08;23.04;101102.72;6261481;28;20648;-51
2021/06/18 13:21:15;;;;;;;8.30;7.40;;;;;;;39.41;23.10;101098.63;6249077;28;20271;-52
2021/06/18 13:24:48;;;;;;;7.47;6.78;;;;;;;38.69;22.37;101098.53;6257969;28;20236;-53
2021/06/18 13:28:09;;;;;;;6.78;6.25;;;;;;;39.55;22.08;101097.69;6265659;28;20219;-53
2021/06/18 13:31:35;;;;;;;8.50;7.38;;;;;;;39.53;22.17;101094.31;6268284;28;20330;-49
2021/06/18 13:35:03;;;;;;;6.95;6.28;;;;;;;42.26;19.92;101094.88;6265084;28;20223;-52
2021/06/18 13:38:27;;;;;;;8.00;7.30;;;;;;;41.75;19.33;101090.22;6256894;28;20230;-47
2021/06/18 13:41:51;;;;;;;8.60;7.00;;;;;;;42.98;18.25;101089.25;6265088;28;20227;-49
2021/06/18 13:45:12;;;;;;;7.20;6.60;;;;;;;41.58;19.04;101088.94;6270154;28;20234;-53
2021/06/18 13:48:34;;;;;;;7.45;6.85;;;;;;;40.66;20.49;101089.50;6246601;28;20228;-50
2021/06/18 13:51:55;;;;;;;7.85;7.25;;;;;;;41.70;19.93;101082.66;6250482;28;20509;-53
2021/06/18 13:55:15;;;;;;;11.30;8.10;;;;;;;39.66;21.13;101074.50;6249493;28;20239;-51
2021/06/18 13:58:37;;;;;;;9.18;7.95;;;;;;;39.61;22.12;101080.56;6243069;28;20235;-54
2021/06/18 14:01:58;;;;;;;8.45;7.85;;;;;;;40.04;21.91;101079.59;6249036;28;20232;-50
2021/06/18 14:05:19;;;;;;;9.20;8.32;;;;;;;37.99;23.51;101078.16;6252985;28;20586;-54
2021/06/18 14:08:41;;;;;;;10.80;7.95;;;;;;;38.70;23.24;101072.16;6262565;28;20243;-48
2021/06/18 14:12:02;;;;;;;7.57;6.97;;;;;;;39.69;21.78;101063.22;6279004;28;20318;-52
2021/06/18 14:15:25;;;;;;;7.80;7.20;;;;;;;39.31;22.57;101069.81;6288616;28;20428;-49
2021/06/18 14:18:46;;;;;;;9.15;7.35;;;;;;;38.23;23.50;101063.44;6298681;28;20242;-51
2021/06/18 14:22:07;;;;;;;8.85;7.95;;;;;;;38.33;23.36;101064.00;6280585;28;20223;-49
2021/06/18 14:25:28;;;;;;;8.73;8.20;;;;;;;38.34;23.91;101067.56;6298907;28;20227;-51
2021/06/18 14:28:49;;;;;;;7.97;7.47;;;;;;;39.79;22.87;101060.97;6292504;28;20262;-48
2021/06/18 14:32:11;;;;;;;9.40;8.63;;;;;;;38.69;23.39;101054.16;6287598;28;20231;-48
2021/06/18 14:35:32;;;;;;;8.57;7.70;;;;;;;39.03;22.62;101052.63;6298247;28;20560;-51
2021/06/18 14:38:53;;;;;;;9.00;8.35;;;;;;;39.55;21.21;101035.03;6295654;28;20227;-53
2021/06/18 14:42:16;;;;;;;8.60;7.90;;;;;;;39.39;21.95;101042.44;6303183;28;20234;-51
2021/06/18 14:45:37;;;;;;;8.55;7.88;;;;;;;39.18;22.33;101042.50;6283926;28;20614;-52
2021/06/18 14:49:00;;;;;;;8.98;8.35;;;;;;;39.14;22.13;101050.22;6287420;28;20230;-48
2021/06/18 14:52:21;;;;;;;9.45;8.40;;;;;;;38.68;22.48;101057.91;6288291;28;20234;-50
2021/06/18 14:55:42;;;;;;;8.55;7.95;;;;;;;38.10;22.95;101038.84;6268509;28;20228;-49
2021/06/18 14:59:03;;;;;;;8.45;7.85;;;;;;;38.66;23.36;101047.25;6262348;28;20755;-53
2021/06/18 15:02:24;;;;;;;8.02;7.60;;;;;;;38.28;23.68;101039.25;6267698;28;20310;-49
2021/06/18 15:05:46;;;;;;;8.90;8.10;;;;;;;38.50;22.11;101040.13;6239165;28;20256;-51
2021/06/18 15:09:07;;;;;;;8.40;7.82;;;;;;;38.56;23.19;101039.41;6253291;28;20228;-50
2021/06/18 15:12:28;;;;;;;8.48;7.65;;;;;;;38.59;22.58;101021.84;6257678;28;20716;-52
2021/06/18 15:15:49;;;;;;;8.82;7.97;;;;;;;37.87;23.86;101022.63;6269463;28;20324;-53
2021/06/18 15:19:10;;;;;;;7.05;6.38;;;;;;;36.67;25.55;101026.91;6280624;28;20232;-50
2021/06/18 15:22:32;;;;;;;8.40;7.70;;;;;;;36.80;25.27;101019.03;6268716;28;20231;-51
2021/06/18 15:25:54;;;;;;;8.48;7.38;;;;;;;36.69;25.68;101021.31;6263122;28;20481;-48
2021/06/18 15:29:15;;;;;;;7.45;7.00;;;;;;;37.43;24.97;101016.94;6255956;28;20221;-49
2021/06/18 15:32:36;;;;;;;7.85;7.25;;;;;;;36.85;25.05;101018.47;6267870;28;20236;-49
2021/06/18 15:35:57;;;;;;;12.32;7.65;;;;;;;36.73;25.40;101011.78;6254732;28;20255;-49
2021/06/18 15:39:21;;;;;;;10.35;9.25;;;;;;;36.49;25.80;101013.63;6257151;28;20943;-47
2021/06/18 15:42:42;;;;;;;8.35;7.65;;;;;;;35.72;26.46;100999.91;6269948;28;20818;-48
2021/06/18 15:46:04;;;;;;;8.70;7.88;;;;;;;35.91;26.27;101012.22;6253128;28;20271;-51